sensor_id;sensor_type;location;lat;lon;timestamp;P1;durP1;ratioP1;P2;durP2;ratioP2
5730;SDS011;2890;51.950;7.668;2022-10-16T00:01:30;7.15;;;4.57;;
5730;SDS011;2890;51.950;7.668;2022-10-16T00:03:58;6.10;;;4.50;;
5730;SDS011;2890;51.950;7.668;2022-10-16T00:06:26;7.63;;;4.30;;
5730;SDS011;2890;51.950;7.668;2022-10-16T00:08:54;9.33;;;4.73;;
5730;SDS011;2890;51.950;7.668;2022-10-16T00:11:23;9.10;;;4.83;;
5730;SDS011;2890;51.950;7.668;2022-10-16T00:13:54;9.77;;;4.30;;
5730;SDS011;2890;51.950;7.668;2022-10-16T00:16:21;9.27;;;4.27;;
5730;SDS011;2890;51.950;7.668;2022-10-16T00:18:48;8.33;;;4.33;;
5730;SDS011;2890;51.950;7.668;2022-10-16T00:21:16;8.37;;;4.90;;
5730;SDS011;2890;51.950;7.668;2022-10-16T00:23:43;8.87;;;5.00;;
5730;SDS011;2890;51.950;7.668;2022-10-16T00:26:11;7.65;;;4.32;;
5730;SDS011;2890;51.950;7.668;2022-10-16T00:28:40;10.53;;;4.67;;
5730;SDS011;2890;51.950;7.668;2022-10-16T00:31:08;7.17;;;4.60;;
5730;SDS011;2890;51.950;7.668;2022-10-16T00:33:36;6.47;;;4.27;;
5730;SDS011;2890;51.950;7.668;2022-10-16T00:36:05;5.90;;;4.67;;
5730;SDS011;2890;51.950;7.668;2022-10-16T00:38:32;10.80;;;4.30;;
5730;SDS011;2890;51.950;7.668;2022-10-16T00:40:59;5.93;;;4.40;;
5730;SDS011;2890;51.950;7.668;2022-10-16T00:43:34;7.70;;;4.80;;
5730;SDS011;2890;51.950;7.668;2022-10-16T00:46:04;7.40;;;4.40;;
5730;SDS011;2890;51.950;7.668;2022-10-16T00:48:35;8.37;;;5.40;;
5730;SDS011;2890;51.950;7.668;2022-10-16T00:51:02;9.83;;;5.10;;
5730;SDS011;2890;51.950;7.668;2022-10-16T00:53:30;8.13;;;4.90;;
5730;SDS011;2890;51.950;7.668;2022-10-16T00:55:56;8.23;;;5.17;;
5730;SDS011;2890;51.950;7.668;2022-10-16T00:58:23;7.33;;;4.63;;
5730;SDS011;2890;51.950;7.668;2022-10-16T01:00:50;7.17;;;5.43;;
5730;SDS011;2890;51.950;7.668;2022-10-16T01:03:26;7.27;;;4.57;;
5730;SDS011;2890;51.950;7.668;2022-10-16T01:05:57;7.00;;;4.87;;
5730;SDS011;2890;51.950;7.668;2022-10-16T01:08:34;12.07;;;5.10;;
5730;SDS011;2890;51.950;7.668;2022-10-16T01:11:11;5.23;;;4.50;;
5730;SDS011;2890;51.950;7.668;2022-10-16T01:13:45;7.20;;;4.80;;
5730;SDS011;2890;51.950;7.668;2022-10-16T01:16:15;6.27;;;4.80;;
5730;SDS011;2890;51.950;7.668;2022-10-16T01:18:51;7.72;;;4.75;;
5730;SDS011;2890;51.950;7.668;2022-10-16T01:21:22;7.73;;;4.77;;
5730;SDS011;2890;51.950;7.668;2022-10-16T01:23:55;10.47;;;5.53;;
5730;SDS011;2890;51.950;7.668;2022-10-16T01:26:35;6.97;;;4.57;;
5730;SDS011;2890;51.950;7.668;2022-10-16T01:29:14;9.13;;;7.20;;
5730;SDS011;2890;51.950;7.668;2022-10-16T01:31:47;5.83;;;5.00;;
5730;SDS011;2890;51.950;7.668;2022-10-16T01:34:21;10.10;;;5.97;;
5730;SDS011;2890;51.950;7.668;2022-10-16T01:36:51;8.87;;;5.27;;
5730;SDS011;2890;51.950;7.668;2022-10-16T01:39:23;6.13;;;5.23;;
5730;SDS011;2890;51.950;7.668;2022-10-16T01:41:54;8.75;;;5.10;;
5730;SDS011;2890;51.950;7.668;2022-10-16T01:44:27;8.97;;;5.23;;
5730;SDS011;2890;51.950;7.668;2022-10-16T01:46:56;9.30;;;5.20;;
5730;SDS011;2890;51.950;7.668;2022-10-16T01:49:25;8.37;;;5.13;;
5730;SDS011;2890;51.950;7.668;2022-10-16T01:51:56;7.30;;;5.17;;
5730;SDS011;2890;51.950;7.668;2022-10-16T01:54:26;7.23;;;5.03;;
5730;SDS011;2890;51.950;7.668;2022-10-16T01:56:54;7.50;;;5.03;;
5730;SDS011;2890;51.950;7.668;2022-10-16T01:59:23;7.65;;;4.80;;
5730;SDS011;2890;51.950;7.668;2022-10-16T02:01:54;7.97;;;5.50;;
5730;SDS011;2890;51.950;7.668;2022-10-16T02:04:26;9.53;;;5.17;;
5730;SDS011;2890;51.950;7.668;2022-10-16T02:06:56;7.30;;;6.10;;
5730;SDS011;2890;51.950;7.668;2022-10-16T02:09:23;8.67;;;5.30;;
5730;SDS011;2890;51.950;7.668;2022-10-16T02:11:50;9.50;;;5.23;;
5730;SDS011;2890;51.950;7.668;2022-10-16T02:14:20;7.47;;;5.33;;
5730;SDS011;2890;51.950;7.668;2022-10-16T02:16:50;9.67;;;4.97;;
5730;SDS011;2890;51.950;7.668;2022-10-16T02:19:17;7.60;;;4.63;;
5730;SDS011;2890;51.950;7.668;2022-10-16T02:21:47;4.77;;;4.37;;
5730;SDS011;2890;51.950;7.668;2022-10-16T02:24:19;5.77;;;4.87;;
5730;SDS011;2890;51.950;7.668;2022-10-16T02:26:55;10.20;;;5.53;;
5730;SDS011;2890;51.950;7.668;2022-10-16T02:29:27;6.47;;;5.07;;
5730;SDS011;2890;51.950;7.668;2022-10-16T02:31:57;9.43;;;6.63;;
5730;SDS011;2890;51.950;7.668;2022-10-16T02:34:28;6.97;;;4.80;;
5730;SDS011;2890;51.950;7.668;2022-10-16T02:36:58;8.00;;;5.47;;
5730;SDS011;2890;51.950;7.668;2022-10-16T02:39:26;7.37;;;5.50;;
5730;SDS011;2890;51.950;7.668;2022-10-16T02:41:54;6.20;;;5.13;;
5730;SDS011;2890;51.950;7.668;2022-10-16T02:44:21;9.73;;;5.13;;
5730;SDS011;2890;51.950;7.668;2022-10-16T02:46:48;7.00;;;5.77;;
5730;SDS011;2890;51.950;7.668;2022-10-16T02:49:16;8.83;;;5.87;;
5730;SDS011;2890;51.950;7.668;2022-10-16T02:51:43;7.97;;;5.13;;
5730;SDS011;2890;51.950;7.668;2022-10-16T02:54:09;6.57;;;5.67;;
5730;SDS011;2890;51.950;7.668;2022-10-16T02:56:36;8.90;;;4.77;;
5730;SDS011;2890;51.950;7.668;2022-10-16T02:59:03;6.20;;;4.77;;
5730;SDS011;2890;51.950;7.668;2022-10-16T03:01:30;5.93;;;4.30;;
5730;SDS011;2890;51.950;7.668;2022-10-16T03:03:57;4.90;;;4.40;;
5730;SDS011;2890;51.950;7.668;2022-10-16T03:06:25;7.23;;;4.53;;
5730;SDS011;2890;51.950;7.668;2022-10-16T03:08:52;6.33;;;4.73;;
5730;SDS011;2890;51.950;7.668;2022-10-16T03:11:18;5.90;;;4.07;;
5730;SDS011;2890;51.950;7.668;2022-10-16T03:13:45;4.63;;;3.80;;
5730;SDS011;2890;51.950;7.668;2022-10-16T03:16:12;5.27;;;4.10;;
5730;SDS011;2890;51.950;7.668;2022-10-16T03:18:39;4.57;;;4.00;;
5730;SDS011;2890;51.950;7.668;2022-10-16T03:21:05;6.47;;;4.80;;
5730;SDS011;2890;51.950;7.668;2022-10-16T03:23:34;4.93;;;4.30;;
5730;SDS011;2890;51.950;7.668;2022-10-16T03:26:00;4.90;;;4.10;;
5730;SDS011;2890;51.950;7.668;2022-10-16T03:28:27;6.87;;;4.27;;
5730;SDS011;2890;51.950;7.668;2022-10-16T03:30:54;6.73;;;4.53;;
5730;SDS011;2890;51.950;7.668;2022-10-16T03:33:20;5.53;;;4.67;;
5730;SDS011;2890;51.950;7.668;2022-10-16T03:35:50;5.20;;;4.00;;
5730;SDS011;2890;51.950;7.668;2022-10-16T03:38:18;6.20;;;4.77;;
5730;SDS011;2890;51.950;7.668;2022-10-16T03:40:47;6.80;;;4.40;;
5730;SDS011;2890;51.950;7.668;2022-10-16T03:43:14;6.77;;;4.53;;
5730;SDS011;2890;51.950;7.668;2022-10-16T03:45:41;7.17;;;4.90;;
5730;SDS011;2890;51.950;7.668;2022-10-16T03:48:07;5.47;;;4.03;;
5730;SDS011;2890;51.950;7.668;2022-10-16T03:50:34;5.07;;;3.90;;
5730;SDS011;2890;51.950;7.668;2022-10-16T03:53:01;5.93;;;4.67;;
5730;SDS011;2890;51.950;7.668;2022-10-16T03:55:28;8.60;;;4.00;;
5730;SDS011;2890;51.950;7.668;2022-10-16T03:57:56;4.87;;;4.30;;
5730;SDS011;2890;51.950;7.668;2022-10-16T04:00:22;6.37;;;4.53;;
5730;SDS011;2890;51.950;7.668;2022-10-16T04:02:49;4.40;;;4.00;;
5730;SDS011;2890;51.950;7.668;2022-10-16T04:05:16;6.87;;;4.10;;
5730;SDS011;2890;51.950;7.668;2022-10-16T04:07:43;6.23;;;4.20;;
5730;SDS011;2890;51.950;7.668;2022-10-16T04:10:09;5.47;;;4.10;;
5730;SDS011;2890;51.950;7.668;2022-10-16T04:12:36;5.20;;;4.03;;
5730;SDS011;2890;51.950;7.668;2022-10-16T04:15:04;4.27;;;3.87;;
5730;SDS011;2890;51.950;7.668;2022-10-16T04:17:32;4.23;;;3.80;;
5730;SDS011;2890;51.950;7.668;2022-10-16T04:19:58;5.67;;;3.87;;
5730;SDS011;2890;51.950;7.668;2022-10-16T04:22:25;5.37;;;4.33;;
5730;SDS011;2890;51.950;7.668;2022-10-16T04:24:52;4.33;;;3.93;;
5730;SDS011;2890;51.950;7.668;2022-10-16T04:27:19;8.93;;;4.50;;
5730;SDS011;2890;51.950;7.668;2022-10-16T04:29:45;7.10;;;4.10;;
5730;SDS011;2890;51.950;7.668;2022-10-16T04:32:14;6.20;;;3.97;;
5730;SDS011;2890;51.950;7.668;2022-10-16T04:34:42;5.07;;;3.70;;
5730;SDS011;2890;51.950;7.668;2022-10-16T04:37:09;5.73;;;4.10;;
5730;SDS011;2890;51.950;7.668;2022-10-16T04:39:35;5.27;;;3.80;;
5730;SDS011;2890;51.950;7.668;2022-10-16T04:42:02;6.60;;;3.40;;
5730;SDS011;2890;51.950;7.668;2022-10-16T04:44:29;5.67;;;3.70;;
5730;SDS011;2890;51.950;7.668;2022-10-16T04:46:56;3.73;;;3.43;;
5730;SDS011;2890;51.950;7.668;2022-10-16T04:49:24;4.50;;;3.23;;
5730;SDS011;2890;51.950;7.668;2022-10-16T04:51:51;10.07;;;3.67;;
5730;SDS011;2890;51.950;7.668;2022-10-16T04:54:17;5.70;;;3.90;;
5730;SDS011;2890;51.950;7.668;2022-10-16T04:56:44;4.27;;;3.73;;
5730;SDS011;2890;51.950;7.668;2022-10-16T04:59:12;5.30;;;3.57;;
5730;SDS011;2890;51.950;7.668;2022-10-16T05:01:39;4.72;;;3.47;;
5730;SDS011;2890;51.950;7.668;2022-10-16T05:04:06;6.03;;;3.50;;
5730;SDS011;2890;51.950;7.668;2022-10-16T05:06:35;6.10;;;3.40;;
5730;SDS011;2890;51.950;7.668;2022-10-16T05:09:03;4.33;;;3.57;;
5730;SDS011;2890;51.950;7.668;2022-10-16T05:11:30;4.30;;;3.10;;
5730;SDS011;2890;51.950;7.668;2022-10-16T05:13:57;3.80;;;3.10;;
5730;SDS011;2890;51.950;7.668;2022-10-16T05:16:24;6.30;;;3.30;;
5730;SDS011;2890;51.950;7.668;2022-10-16T05:18:51;4.13;;;3.33;;
5730;SDS011;2890;51.950;7.668;2022-10-16T05:21:17;4.60;;;3.50;;
5730;SDS011;2890;51.950;7.668;2022-10-16T05:23:46;3.40;;;3.00;;
5730;SDS011;2890;51.950;7.668;2022-10-16T05:26:12;4.10;;;3.60;;
5730;SDS011;2890;51.950;7.668;2022-10-16T05:28:40;3.67;;;3.27;;
5730;SDS011;2890;51.950;7.668;2022-10-16T05:31:06;7.10;;;3.10;;
5730;SDS011;2890;51.950;7.668;2022-10-16T05:33:34;4.87;;;3.20;;
5730;SDS011;2890;51.950;7.668;2022-10-16T05:36:01;5.03;;;3.17;;
5730;SDS011;2890;51.950;7.668;2022-10-16T05:38:29;4.40;;;3.10;;
5730;SDS011;2890;51.950;7.668;2022-10-16T05:40:57;3.43;;;3.13;;
5730;SDS011;2890;51.950;7.668;2022-10-16T05:43:24;5.70;;;2.93;;
5730;SDS011;2890;51.950;7.668;2022-10-16T05:45:54;3.30;;;3.00;;
5730;SDS011;2890;51.950;7.668;2022-10-16T05:48:21;3.57;;;3.03;;
5730;SDS011;2890;51.950;7.668;2022-10-16T05:50:48;3.67;;;2.63;;
5730;SDS011;2890;51.950;7.668;2022-10-16T05:53:22;5.63;;;3.57;;
5730;SDS011;2890;51.950;7.668;2022-10-16T05:55:51;3.00;;;2.37;;
5730;SDS011;2890;51.950;7.668;2022-10-16T05:58:20;3.60;;;3.23;;
5730;SDS011;2890;51.950;7.668;2022-10-16T06:00:52;4.20;;;2.73;;
5730;SDS011;2890;51.950;7.668;2022-10-16T06:03:20;5.60;;;2.80;;
5730;SDS011;2890;51.950;7.668;2022-10-16T06:05:46;4.67;;;2.50;;
5730;SDS011;2890;51.950;7.668;2022-10-16T06:08:13;3.40;;;2.45;;
5730;SDS011;2890;51.950;7.668;2022-10-16T06:10:40;2.97;;;2.57;;
5730;SDS011;2890;51.950;7.668;2022-10-16T06:13:07;5.07;;;2.63;;
5730;SDS011;2890;51.950;7.668;2022-10-16T06:15:35;2.83;;;2.50;;
5730;SDS011;2890;51.950;7.668;2022-10-16T06:18:04;2.67;;;2.30;;
5730;SDS011;2890;51.950;7.668;2022-10-16T06:20:31;3.40;;;2.67;;
5730;SDS011;2890;51.950;7.668;2022-10-16T06:22:57;6.50;;;2.40;;
5730;SDS011;2890;51.950;7.668;2022-10-16T06:25:24;2.83;;;2.23;;
5730;SDS011;2890;51.950;7.668;2022-10-16T06:27:51;3.30;;;2.53;;
5730;SDS011;2890;51.950;7.668;2022-10-16T06:30:18;3.93;;;2.50;;
5730;SDS011;2890;51.950;7.668;2022-10-16T06:32:46;4.20;;;2.37;;
5730;SDS011;2890;51.950;7.668;2022-10-16T06:35:13;3.63;;;2.83;;
5730;SDS011;2890;51.950;7.668;2022-10-16T06:37:40;2.77;;;2.40;;
5730;SDS011;2890;51.950;7.668;2022-10-16T06:40:07;5.00;;;2.70;;
5730;SDS011;2890;51.950;7.668;2022-10-16T06:42:34;3.87;;;3.40;;
5730;SDS011;2890;51.950;7.668;2022-10-16T06:45:01;3.73;;;2.00;;
5730;SDS011;2890;51.950;7.668;2022-10-16T06:47:27;2.80;;;1.90;;
5730;SDS011;2890;51.950;7.668;2022-10-16T06:49:56;2.20;;;1.70;;
5730;SDS011;2890;51.950;7.668;2022-10-16T06:52:22;2.80;;;2.00;;
5730;SDS011;2890;51.950;7.668;2022-10-16T06:54:49;2.33;;;2.03;;
5730;SDS011;2890;51.950;7.668;2022-10-16T06:57:16;3.87;;;2.10;;
5730;SDS011;2890;51.950;7.668;2022-10-16T06:59:43;3.00;;;2.10;;
5730;SDS011;2890;51.950;7.668;2022-10-16T07:02:10;3.47;;;2.30;;
5730;SDS011;2890;51.950;7.668;2022-10-16T07:04:36;3.43;;;2.00;;
5730;SDS011;2890;51.950;7.668;2022-10-16T07:07:05;4.30;;;1.95;;
5730;SDS011;2890;51.950;7.668;2022-10-16T07:09:31;4.57;;;2.23;;
5730;SDS011;2890;51.950;7.668;2022-10-16T07:11:58;4.03;;;3.77;;
5730;SDS011;2890;51.950;7.668;2022-10-16T07:14:25;2.20;;;2.00;;
5730;SDS011;2890;51.950;7.668;2022-10-16T07:16:51;3.53;;;2.00;;
5730;SDS011;2890;51.950;7.668;2022-10-16T07:19:18;1.90;;;1.80;;
5730;SDS011;2890;51.950;7.668;2022-10-16T07:21:45;4.15;;;1.92;;
5730;SDS011;2890;51.950;7.668;2022-10-16T07:24:14;2.08;;;1.88;;
5730;SDS011;2890;51.950;7.668;2022-10-16T07:26:42;2.17;;;1.80;;
5730;SDS011;2890;51.950;7.668;2022-10-16T07:29:12;2.03;;;1.90;;
5730;SDS011;2890;51.950;7.668;2022-10-16T07:31:39;4.00;;;2.40;;
5730;SDS011;2890;51.950;7.668;2022-10-16T07:34:06;2.72;;;1.92;;
5730;SDS011;2890;51.950;7.668;2022-10-16T07:36:33;1.75;;;1.60;;
5730;SDS011;2890;51.950;7.668;2022-10-16T07:39:00;6.53;;;2.00;;
5730;SDS011;2890;51.950;7.668;2022-10-16T07:41:28;3.25;;;1.70;;
5730;SDS011;2890;51.950;7.668;2022-10-16T07:43:57;2.25;;;1.27;;
5730;SDS011;2890;51.950;7.668;2022-10-16T07:46:25;3.08;;;1.83;;
5730;SDS011;2890;51.950;7.668;2022-10-16T07:48:53;7.32;;;1.85;;
5730;SDS011;2890;51.950;7.668;2022-10-16T07:51:20;2.90;;;1.42;;
5730;SDS011;2890;51.950;7.668;2022-10-16T07:53:48;2.53;;;1.85;;
5730;SDS011;2890;51.950;7.668;2022-10-16T07:56:16;1.48;;;1.35;;
5730;SDS011;2890;51.950;7.668;2022-10-16T07:58:45;1.40;;;1.30;;
5730;SDS011;2890;51.950;7.668;2022-10-16T08:01:14;1.40;;;1.30;;
5730;SDS011;2890;51.950;7.668;2022-10-16T08:03:42;2.40;;;1.42;;
5730;SDS011;2890;51.950;7.668;2022-10-16T08:06:10;2.75;;;1.60;;
5730;SDS011;2890;51.950;7.668;2022-10-16T08:08:37;1.67;;;1.48;;
5730;SDS011;2890;51.950;7.668;2022-10-16T08:11:04;1.45;;;1.35;;
5730;SDS011;2890;51.950;7.668;2022-10-16T08:13:31;1.30;;;1.20;;
5730;SDS011;2890;51.950;7.668;2022-10-16T08:16:00;2.40;;;1.60;;
5730;SDS011;2890;51.950;7.668;2022-10-16T08:18:28;2.17;;;1.25;;
5730;SDS011;2890;51.950;7.668;2022-10-16T08:20:56;1.70;;;1.40;;
5730;SDS011;2890;51.950;7.668;2022-10-16T08:23:23;3.72;;;2.65;;
5730;SDS011;2890;51.950;7.668;2022-10-16T08:25:51;2.63;;;1.70;;
5730;SDS011;2890;51.950;7.668;2022-10-16T08:28:18;3.88;;;1.30;;
5730;SDS011;2890;51.950;7.668;2022-10-16T08:30:45;1.65;;;1.30;;
5730;SDS011;2890;51.950;7.668;2022-10-16T08:33:14;4.13;;;1.60;;
5730;SDS011;2890;51.950;7.668;2022-10-16T08:35:41;1.63;;;1.50;;
5730;SDS011;2890;51.950;7.668;2022-10-16T08:38:08;1.48;;;1.20;;
5730;SDS011;2890;51.950;7.668;2022-10-16T08:40:36;3.63;;;1.48;;
5730;SDS011;2890;51.950;7.668;2022-10-16T08:43:20;3.10;;;1.58;;
5730;SDS011;2890;51.950;7.668;2022-10-16T08:45:51;3.40;;;1.30;;
5730;SDS011;2890;51.950;7.668;2022-10-16T08:48:26;1.55;;;1.30;;
5730;SDS011;2890;51.950;7.668;2022-10-16T08:50:54;2.88;;;1.58;;
5730;SDS011;2890;51.950;7.668;2022-10-16T08:53:23;2.63;;;1.50;;
5730;SDS011;2890;51.950;7.668;2022-10-16T08:55:51;4.70;;;1.50;;
5730;SDS011;2890;51.950;7.668;2022-10-16T08:58:19;1.83;;;1.60;;
5730;SDS011;2890;51.950;7.668;2022-10-16T09:00:47;2.47;;;1.17;;
5730;SDS011;2890;51.950;7.668;2022-10-16T09:03:22;2.80;;;1.75;;
5730;SDS011;2890;51.950;7.668;2022-10-16T09:08:45;1.33;;;1.23;;
5730;SDS011;2890;51.950;7.668;2022-10-16T09:11:14;2.50;;;1.58;;
5730;SDS011;2890;51.950;7.668;2022-10-16T09:13:48;1.70;;;1.60;;
5730;SDS011;2890;51.950;7.668;2022-10-16T09:16:17;3.50;;;1.35;;
5730;SDS011;2890;51.950;7.668;2022-10-16T09:18:48;2.55;;;1.50;;
5730;SDS011;2890;51.950;7.668;2022-10-16T09:21:19;2.10;;;1.50;;
5730;SDS011;2890;51.950;7.668;2022-10-16T09:23:49;3.15;;;1.50;;
5730;SDS011;2890;51.950;7.668;2022-10-16T09:26:17;3.35;;;1.30;;
5730;SDS011;2890;51.950;7.668;2022-10-16T09:28:46;4.82;;;1.25;;
5730;SDS011;2890;51.950;7.668;2022-10-16T09:31:17;4.60;;;1.50;;
5730;SDS011;2890;51.950;7.668;2022-10-16T09:33:45;3.92;;;1.30;;
5730;SDS011;2890;51.950;7.668;2022-10-16T09:36:14;2.88;;;1.20;;
5730;SDS011;2890;51.950;7.668;2022-10-16T09:38:41;2.08;;;1.42;;
5730;SDS011;2890;51.950;7.668;2022-10-16T09:41:14;1.73;;;1.23;;
5730;SDS011;2890;51.950;7.668;2022-10-16T09:43:45;2.53;;;1.27;;
5730;SDS011;2890;51.950;7.668;2022-10-16T09:46:21;3.97;;;1.70;;
5730;SDS011;2890;51.950;7.668;2022-10-16T09:48:49;2.88;;;1.48;;
5730;SDS011;2890;51.950;7.668;2022-10-16T09:51:17;4.18;;;1.60;;
5730;SDS011;2890;51.950;7.668;2022-10-16T09:53:45;3.40;;;1.35;;
5730;SDS011;2890;51.950;7.668;2022-10-16T09:56:22;2.50;;;1.42;;
5730;SDS011;2890;51.950;7.668;2022-10-16T09:58:49;3.83;;;1.63;;
5730;SDS011;2890;51.950;7.668;2022-10-16T10:01:17;2.58;;;1.30;;
5730;SDS011;2890;51.950;7.668;2022-10-16T10:03:45;5.03;;;4.10;;
5730;SDS011;2890;51.950;7.668;2022-10-16T10:06:17;8.43;;;4.40;;
5730;SDS011;2890;51.950;7.668;2022-10-16T10:08:55;5.85;;;2.05;;
5730;SDS011;2890;51.950;7.668;2022-10-16T10:11:39;2.67;;;1.33;;
5730;SDS011;2890;51.950;7.668;2022-10-16T10:14:09;4.10;;;1.85;;
5730;SDS011;2890;51.950;7.668;2022-10-16T10:16:42;4.68;;;2.10;;
5730;SDS011;2890;51.950;7.668;2022-10-16T10:19:12;4.10;;;2.10;;
5730;SDS011;2890;51.950;7.668;2022-10-16T10:21:39;7.53;;;2.25;;
5730;SDS011;2890;51.950;7.668;2022-10-16T10:24:09;7.10;;;2.72;;
5730;SDS011;2890;51.950;7.668;2022-10-16T10:26:36;4.38;;;2.53;;
5730;SDS011;2890;51.950;7.668;2022-10-16T10:29:06;4.63;;;2.42;;
5730;SDS011;2890;51.950;7.668;2022-10-16T10:31:38;4.57;;;2.78;;
5730;SDS011;2890;51.950;7.668;2022-10-16T10:34:14;4.97;;;2.63;;
5730;SDS011;2890;51.950;7.668;2022-10-16T10:36:45;3.85;;;2.45;;
5730;SDS011;2890;51.950;7.668;2022-10-16T10:39:15;3.38;;;1.73;;
5730;SDS011;2890;51.950;7.668;2022-10-16T10:41:59;4.15;;;1.75;;
5730;SDS011;2890;51.950;7.668;2022-10-16T10:44:33;3.00;;;1.40;;
5730;SDS011;2890;51.950;7.668;2022-10-16T10:47:04;2.65;;;1.70;;
5730;SDS011;2890;51.950;7.668;2022-10-16T10:49:37;2.13;;;1.55;;
5730;SDS011;2890;51.950;7.668;2022-10-16T10:52:11;18.77;;;13.35;;
5730;SDS011;2890;51.950;7.668;2022-10-16T10:54:41;3.72;;;2.42;;
5730;SDS011;2890;51.950;7.668;2022-10-16T10:57:14;2.50;;;1.48;;
5730;SDS011;2890;51.950;7.668;2022-10-16T11:00:01;4.95;;;3.25;;
5730;SDS011;2890;51.950;7.668;2022-10-16T11:02:32;16.88;;;13.88;;
5730;SDS011;2890;51.950;7.668;2022-10-16T11:05:12;5.30;;;1.80;;
5730;SDS011;2890;51.950;7.668;2022-10-16T11:07:43;3.20;;;1.25;;
5730;SDS011;2890;51.950;7.668;2022-10-16T11:10:12;3.35;;;1.48;;
5730;SDS011;2890;51.950;7.668;2022-10-16T11:12:41;1.65;;;1.15;;
5730;SDS011;2890;51.950;7.668;2022-10-16T11:15:12;1.48;;;1.38;;
5730;SDS011;2890;51.950;7.668;2022-10-16T11:17:42;2.70;;;1.50;;
5730;SDS011;2890;51.950;7.668;2022-10-16T11:20:13;1.48;;;1.27;;
5730;SDS011;2890;51.950;7.668;2022-10-16T11:22:42;2.03;;;1.20;;
5730;SDS011;2890;51.950;7.668;2022-10-16T11:25:13;1.45;;;1.20;;
5730;SDS011;2890;51.950;7.668;2022-10-16T11:27:41;1.60;;;1.50;;
5730;SDS011;2890;51.950;7.668;2022-10-16T11:30:14;2.55;;;1.50;;
5730;SDS011;2890;51.950;7.668;2022-10-16T11:32:47;5.30;;;1.83;;
5730;SDS011;2890;51.950;7.668;2022-10-16T11:35:17;2.00;;;1.38;;
5730;SDS011;2890;51.950;7.668;2022-10-16T11:37:47;5.43;;;1.20;;
5730;SDS011;2890;51.950;7.668;2022-10-16T11:40:17;2.03;;;1.40;;
5730;SDS011;2890;51.950;7.668;2022-10-16T11:42:46;4.18;;;1.50;;
5730;SDS011;2890;51.950;7.668;2022-10-16T11:45:19;2.45;;;1.60;;
5730;SDS011;2890;51.950;7.668;2022-10-16T11:47:51;2.40;;;0.98;;
5730;SDS011;2890;51.950;7.668;2022-10-16T11:50:22;1.83;;;1.20;;
5730;SDS011;2890;51.950;7.668;2022-10-16T11:52:53;3.30;;;1.60;;
5730;SDS011;2890;51.950;7.668;2022-10-16T11:55:22;3.22;;;1.73;;
5730;SDS011;2890;51.950;7.668;2022-10-16T11:57:51;2.45;;;1.42;;
5730;SDS011;2890;51.950;7.668;2022-10-16T12:00:21;3.38;;;1.20;;
5730;SDS011;2890;51.950;7.668;2022-10-16T12:02:53;3.63;;;1.58;;
5730;SDS011;2890;51.950;7.668;2022-10-16T12:05:24;2.55;;;1.42;;
5730;SDS011;2890;51.950;7.668;2022-10-16T12:08:01;1.90;;;1.52;;
5730;SDS011;2890;51.950;7.668;2022-10-16T12:10:29;3.00;;;1.30;;
5730;SDS011;2890;51.950;7.668;2022-10-16T12:13:02;2.55;;;1.13;;
5730;SDS011;2890;51.950;7.668;2022-10-16T12:15:31;2.55;;;1.50;;
5730;SDS011;2890;51.950;7.668;2022-10-16T12:17:59;4.53;;;1.20;;
5730;SDS011;2890;51.950;7.668;2022-10-16T12:20:27;1.83;;;1.15;;
5730;SDS011;2890;51.950;7.668;2022-10-16T12:22:57;2.50;;;1.10;;
5730;SDS011;2890;51.950;7.668;2022-10-16T12:25:25;3.80;;;1.92;;
5730;SDS011;2890;51.950;7.668;2022-10-16T12:27:54;1.92;;;1.13;;
5730;SDS011;2890;51.950;7.668;2022-10-16T12:30:23;2.88;;;1.48;;
5730;SDS011;2890;51.950;7.668;2022-10-16T12:32:55;2.88;;;1.15;;
5730;SDS011;2890;51.950;7.668;2022-10-16T12:35:23;2.80;;;1.50;;
5730;SDS011;2890;51.950;7.668;2022-10-16T12:37:50;3.03;;;1.40;;
5730;SDS011;2890;51.950;7.668;2022-10-16T12:40:24;2.38;;;1.05;;
5730;SDS011;2890;51.950;7.668;2022-10-16T12:42:52;1.58;;;0.93;;
5730;SDS011;2890;51.950;7.668;2022-10-16T12:45:27;1.48;;;1.10;;
5730;SDS011;2890;51.950;7.668;2022-10-16T12:47:57;3.63;;;1.30;;
5730;SDS011;2890;51.950;7.668;2022-10-16T12:50:35;3.40;;;1.40;;
5730;SDS011;2890;51.950;7.668;2022-10-16T12:53:03;1.88;;;1.20;;
5730;SDS011;2890;51.950;7.668;2022-10-16T12:55:32;2.67;;;1.15;;
5730;SDS011;2890;51.950;7.668;2022-10-16T12:58:17;2.03;;;1.30;;
5730;SDS011;2890;51.950;7.668;2022-10-16T13:00:50;1.77;;;1.58;;
5730;SDS011;2890;51.950;7.668;2022-10-16T13:06:22;2.20;;;1.38;;
5730;SDS011;2890;51.950;7.668;2022-10-16T13:08:57;3.70;;;1.25;;
5730;SDS011;2890;51.950;7.668;2022-10-16T13:11:32;2.15;;;1.35;;
5730;SDS011;2890;51.950;7.668;2022-10-16T13:16:49;5.32;;;1.48;;
5730;SDS011;2890;51.950;7.668;2022-10-16T13:19:19;2.22;;;1.30;;
5730;SDS011;2890;51.950;7.668;2022-10-16T13:21:51;3.63;;;1.38;;
5730;SDS011;2890;51.950;7.668;2022-10-16T13:24:25;2.47;;;1.38;;
5730;SDS011;2890;51.950;7.668;2022-10-16T13:26:55;2.40;;;1.33;;
5730;SDS011;2890;51.950;7.668;2022-10-16T13:29:24;3.88;;;1.65;;
5730;SDS011;2890;51.950;7.668;2022-10-16T13:31:56;1.75;;;1.48;;
5730;SDS011;2890;51.950;7.668;2022-10-16T13:34:24;2.70;;;1.40;;
5730;SDS011;2890;51.950;7.668;2022-10-16T13:36:53;1.50;;;1.20;;
5730;SDS011;2890;51.950;7.668;2022-10-16T13:39:21;6.55;;;1.33;;
5730;SDS011;2890;51.950;7.668;2022-10-16T13:41:57;3.65;;;1.45;;
5730;SDS011;2890;51.950;7.668;2022-10-16T13:44:25;3.00;;;1.33;;
5730;SDS011;2890;51.950;7.668;2022-10-16T13:46:58;1.52;;;1.20;;
5730;SDS011;2890;51.950;7.668;2022-10-16T13:49:25;3.40;;;1.33;;
5730;SDS011;2890;51.950;7.668;2022-10-16T13:51:57;1.52;;;1.40;;
5730;SDS011;2890;51.950;7.668;2022-10-16T13:54:24;3.17;;;1.95;;
5730;SDS011;2890;51.950;7.668;2022-10-16T13:56:52;2.05;;;1.40;;
5730;SDS011;2890;51.950;7.668;2022-10-16T13:59:23;2.22;;;1.30;;
5730;SDS011;2890;51.950;7.668;2022-10-16T14:01:51;2.65;;;1.42;;
5730;SDS011;2890;51.950;7.668;2022-10-16T14:04:19;2.78;;;1.30;;
5730;SDS011;2890;51.950;7.668;2022-10-16T14:06:48;3.00;;;1.38;;
5730;SDS011;2890;51.950;7.668;2022-10-16T14:09:18;2.28;;;1.83;;
5730;SDS011;2890;51.950;7.668;2022-10-16T14:11:49;2.65;;;1.48;;
5730;SDS011;2890;51.950;7.668;2022-10-16T14:14:17;1.77;;;1.17;;
5730;SDS011;2890;51.950;7.668;2022-10-16T14:16:45;4.97;;;1.30;;
5730;SDS011;2890;51.950;7.668;2022-10-16T14:19:14;2.92;;;1.80;;
5730;SDS011;2890;51.950;7.668;2022-10-16T14:21:44;1.30;;;1.20;;
5730;SDS011;2890;51.950;7.668;2022-10-16T14:24:11;8.98;;;1.30;;
5730;SDS011;2890;51.950;7.668;2022-10-16T14:26:42;4.35;;;1.30;;
5730;SDS011;2890;51.950;7.668;2022-10-16T14:29:11;3.88;;;2.20;;
5730;SDS011;2890;51.950;7.668;2022-10-16T14:31:38;2.53;;;1.42;;
5730;SDS011;2890;51.950;7.668;2022-10-16T14:36:47;2.00;;;1.33;;
5730;SDS011;2890;51.950;7.668;2022-10-16T14:39:17;4.78;;;1.60;;
5730;SDS011;2890;51.950;7.668;2022-10-16T14:41:47;3.22;;;1.60;;
5730;SDS011;2890;51.950;7.668;2022-10-16T14:44:14;2.08;;;1.50;;
5730;SDS011;2890;51.950;7.668;2022-10-16T14:46:43;2.03;;;1.17;;
5730;SDS011;2890;51.950;7.668;2022-10-16T14:49:14;2.00;;;1.40;;
5730;SDS011;2890;51.950;7.668;2022-10-16T14:51:42;2.10;;;1.92;;
5730;SDS011;2890;51.950;7.668;2022-10-16T14:54:10;4.82;;;1.73;;
5730;SDS011;2890;51.950;7.668;2022-10-16T14:56:42;3.63;;;1.75;;
5730;SDS011;2890;51.950;7.668;2022-10-16T14:59:13;1.50;;;1.40;;
5730;SDS011;2890;51.950;7.668;2022-10-16T15:01:42;2.60;;;1.58;;
5730;SDS011;2890;51.950;7.668;2022-10-16T15:04:09;4.32;;;1.90;;
5730;SDS011;2890;51.950;7.668;2022-10-16T15:06:38;2.28;;;1.30;;
5730;SDS011;2890;51.950;7.668;2022-10-16T15:09:05;5.13;;;2.22;;
5730;SDS011;2890;51.950;7.668;2022-10-16T15:11:32;4.43;;;1.55;;
5730;SDS011;2890;51.950;7.668;2022-10-16T15:14:00;3.10;;;1.63;;
5730;SDS011;2890;51.950;7.668;2022-10-16T15:16:30;3.97;;;1.40;;
5730;SDS011;2890;51.950;7.668;2022-10-16T15:18:57;1.80;;;1.70;;
5730;SDS011;2890;51.950;7.668;2022-10-16T15:21:24;1.90;;;1.67;;
5730;SDS011;2890;51.950;7.668;2022-10-16T15:23:53;2.35;;;1.67;;
5730;SDS011;2890;51.950;7.668;2022-10-16T15:26:21;5.70;;;1.88;;
5730;SDS011;2890;51.950;7.668;2022-10-16T15:28:48;3.35;;;2.17;;
5730;SDS011;2890;51.950;7.668;2022-10-16T15:31:15;3.83;;;1.45;;
5730;SDS011;2890;51.950;7.668;2022-10-16T15:33:43;6.97;;;2.33;;
5730;SDS011;2890;51.950;7.668;2022-10-16T15:36:16;5.15;;;2.05;;
5730;SDS011;2890;51.950;7.668;2022-10-16T15:38:43;3.53;;;1.98;;